Time;durP1;ratioP1;P1;durP2;ratioP2;P2;SDS_P1;SDS_P2;PMS_P1;PMS_P2;Temp;Humidity;BMP_temperature;BMP_pressure;BME280_temperature;BME280_humidity;BME280_pressure;Samples;Min_cycle;Max_cycle;Signal;HPM_P1;HPM_P2
2021/12/20 00:00:42;;;;;;;52.43;47.23;;;;;;;2.47;76.67;102552.03;4930188;29;20042;-92
2021/12/20 00:03:07;;;;;;;51.50;46.90;;;;;;;2.53;76.65;102542.09;4914587;29;20020;-91
2021/12/20 00:05:38;;;;;;;53.20;47.70;;;;;;;2.34;75.97;102516.06;4932865;29;20073;-91
2021/12/20 00:08:06;;;;;;;54.13;48.53;;;;;;;2.23;76.38;102491.97;4932763;29;20030;-91
2021/12/20 00:10:42;;;;;;;52.70;47.33;;;;;;;2.21;76.28;102529.13;4948466;29;20118;-91
2021/12/20 00:13:17;;;;;;;52.70;47.58;;;;;;;1.89;77.28;102490.78;4933040;29;20034;-91
2021/12/20 00:15:44;;;;;;;52.88;47.40;;;;;;;2.31;76.57;102530.34;4951520;28;20035;-91
2021/12/20 00:18:22;;;;;;;53.38;48.05;;;;;;;2.02;76.12;102511.53;4934201;29;20031;-91
2021/12/20 00:20:50;;;;;;;52.15;47.08;;;;;;;2.22;75.48;102520.72;4933882;29;20043;-90
2021/12/20 00:23:22;;;;;;;52.42;47.83;;;;;;;2.20;74.79;102522.34;4928661;29;20035;-91
2021/12/20 00:25:54;;;;;;;52.35;47.38;;;;;;;2.09;74.56;102513.50;4948585;28;20027;-91
2021/12/20 00:28:23;;;;;;;51.22;46.15;;;;;;;1.96;74.70;102482.59;4943230;29;20254;-90
2021/12/20 00:30:54;;;;;;;51.38;46.60;;;;;;;2.23;74.85;102552.91;4944259;29;20080;-91
2021/12/20 00:33:20;;;;;;;51.05;46.17;;;;;;;1.90;74.23;102505.22;4956625;28;20066;-91
2021/12/20 00:35:58;;;;;;;49.73;45.50;;;;;;;1.95;74.51;102500.31;4931277;29;20028;-91
2021/12/20 00:42:01;;;;;;;51.55;46.75;;;;;;;2.19;74.10;102533.28;4968662;28;20050;-91
2021/12/20 00:44:47;;;;;;;51.72;47.05;;;;;;;2.10;73.91;102530.44;4959589;28;20030;-92
2021/12/20 00:47:18;;;;;;;82.40;58.13;;;;;;;1.97;73.55;102516.44;4974105;23;20236;-92
2021/12/20 00:53:17;;;;;;;51.80;46.92;;;;;;;1.83;74.20;102513.44;5008746;28;20045;-91
2021/12/20 00:55:59;;;;;;;51.65;46.63;;;;;;;2.13;74.40;102571.16;4987915;28;20014;-91
2021/12/20 00:58:35;;;;;;;53.20;47.80;;;;;;;2.15;74.27;102572.09;4986926;28;20025;-92
2021/12/20 01:01:03;;;;;;;50.77;46.27;;;;;;;1.88;74.37;102523.72;4984250;28;20023;-91
2021/12/20 01:03:43;;;;;;;51.90;46.65;;;;;;;2.03;74.19;102543.72;4985386;28;20074;-91
2021/12/20 01:06:17;;;;;;;54.67;49.03;;;;;;;1.93;73.96;102543.41;4987557;28;20014;-91
2021/12/20 01:08:47;;;;;;;52.75;47.33;;;;;;;1.95;73.80;102557.00;4987117;28;20014;-92
2021/12/20 01:11:29;;;;;;;53.13;47.63;;;;;;;1.99;73.76;102594.38;4983375;28;20033;-91
2021/12/20 01:13:57;;;;;;;51.13;46.30;;;;;;;1.71;74.03;102556.97;4950291;28;20027;-90
2021/12/20 01:16:30;;;;;;;52.17;47.33;;;;;;;1.84;74.24;102560.81;4982916;28;20042;-89
2021/12/20 01:18:57;;;;;;;52.75;47.63;;;;;;;1.83;74.49;102551.50;4966295;28;20042;-90
2021/12/20 01:21:26;;;;;;;51.65;46.75;;;;;;;1.93;74.24;102558.63;4969823;28;20074;-90
2021/12/20 01:23:51;;;;;;;52.83;47.30;;;;;;;1.50;74.71;102521.53;4962877;28;20011;-92
2021/12/20 01:26:17;;;;;;;52.72;47.70;;;;;;;1.92;74.55;102576.34;4961943;28;20046;-91
2021/12/20 01:28:43;;;;;;;52.10;47.10;;;;;;;1.90;74.29;102578.81;4952616;28;20035;-91
2021/12/20 01:31:09;;;;;;;54.33;48.50;;;;;;;1.62;74.04;102561.69;4979215;28;20237;-91
2021/12/20 01:33:35;;;;;;;51.60;46.63;;;;;;;1.81;74.27;102583.53;4953910;29;20042;-91
2021/12/20 01:36:03;;;;;;;53.03;47.53;;;;;;;1.79;74.13;102569.94;4948862;28;20035;-91
2021/12/20 01:38:28;;;;;;;51.13;46.40;;;;;;;1.62;74.24;102542.28;4949933;28;20031;-91
2021/12/20 01:40:54;;;;;;;53.40;48.03;;;;;;;1.83;74.16;102560.78;4964621;28;20033;-90
2021/12/20 01:43:20;;;;;;;52.97;47.80;;;;;;;1.69;73.54;102543.38;4968326;28;20073;-91
2021/12/20 01:45:49;;;;;;;54.23;47.50;;;;;;;1.55;73.82;102539.47;4961399;28;20031;-91
2021/12/20 01:48:18;;;;;;;54.13;48.33;;;;;;;1.65;73.67;102540.66;4954224;28;20035;-91
2021/12/20 01:51:02;;;;;;;52.00;47.17;;;;;;;1.65;73.27;102543.19;4950260;28;20042;-91
2021/12/20 01:53:31;;;;;;;51.80;46.95;;;;;;;1.79;73.14;102569.94;4949603;28;20030;-90
2021/12/20 01:56:10;;;;;;;51.67;46.80;;;;;;;1.84;73.74;102578.59;4948330;28;20041;-91
2021/12/20 01:58:40;;;;;;;50.28;45.92;;;;;;;1.58;73.45;102539.56;4945872;29;20023;-91
2021/12/20 02:01:19;;;;;;;53.60;48.33;;;;;;;1.32;73.72;102515.75;4929043;29;20082;-91
2021/12/20 02:03:50;;;;;;;53.72;48.17;;;;;;;1.55;74.82;102550.47;4952654;28;20050;-91
2021/12/20 02:06:22;;;;;;;50.97;46.08;;;;;;;1.52;74.53;102555.41;4950511;28;20367;-90
2021/12/20 02:08:54;;;;;;;52.78;47.55;;;;;;;1.53;74.96;102556.31;4968120;28;20117;-91
2021/12/20 02:11:29;;;;;;;53.00;47.28;;;;;;;1.57;74.82;102561.50;4954870;28;20034;-91
2021/12/20 02:13:58;;;;;;;51.83;46.70;;;;;;;1.37;74.33;102519.31;4972720;28;20022;-89
2021/12/20 02:16:23;;;;;;;52.92;47.92;;;;;;;1.36;74.67;102538.75;4951350;29;20031;-90
2021/12/20 02:18:49;;;;;;;53.17;47.27;;;;;;;1.59;74.21;102559.03;4945408;28;20085;-91
2021/12/20 02:21:15;;;;;;;52.30;46.97;;;;;;;1.51;74.25;102553.72;4972224;28;20098;-91
2021/12/20 02:23:44;;;;;;;53.10;47.95;;;;;;;1.56;74.14;102572.50;4981623;28;20041;-92
2021/12/20 02:26:12;;;;;;;51.60;46.65;;;;;;;1.08;74.63;102509.81;4954959;28;20102;-91
2021/12/20 02:28:43;;;;;;;51.90;46.97;;;;;;;1.23;74.84;102501.94;4949752;28;20517;-90
2021/12/20 02:37:01;;;;;;;56.28;48.63;;;;;;;1.51;74.33;102562.97;4960458;28;20526;-91
2021/12/20 02:39:27;;;;;;;53.13;47.75;;;;;;;1.36;74.28;102553.97;4931562;29;20023;-90
2021/12/20 02:41:56;;;;;;;51.58;46.65;;;;;;;1.36;74.57;102542.97;4929624;29;20019;-92
2021/12/20 02:44:27;;;;;;;51.55;46.83;;;;;;;1.40;74.44;102549.88;4956566;28;20055;-91
2021/12/20 02:49:26;;;;;;;51.25;46.28;;;;;;;1.01;74.57;102509.50;4978201;28;20042;-90
2021/12/20 02:52:18;;;;;;;53.20;47.47;;;;;;;1.25;74.40;102550.16;4981810;28;20014;-91
2021/12/20 02:54:44;;;;;;;51.70;46.72;;;;;;;1.15;74.46;102550.63;4981445;28;20090;-91
2021/12/20 02:57:14;;;;;;;50.95;46.28;;;;;;;1.36;74.60;102566.63;4965651;28;20114;-90
2021/12/20 02:59:43;;;;;;;52.30;47.50;;;;;;;1.08;73.85;102519.06;4986189;28;20022;-90
2021/12/20 03:02:22;;;;;;;50.58;45.95;;;;;;;1.13;74.75;102542.94;5001034;28;20011;-91
2021/12/20 03:04:51;;;;;;;53.40;48.13;;;;;;;1.03;74.30;102515.50;4985278;28;20014;-92
2021/12/20 03:07:24;;;;;;;52.22;47.10;;;;;;;1.23;74.62;102539.94;4984901;28;20030;-92
2021/12/20 03:09:55;;;;;;;52.25;47.13;;;;;;;1.08;74.76;102531.75;4967172;28;20019;-92
2021/12/20 03:12:25;;;;;;;54.30;48.65;;;;;;;1.30;74.83;102558.78;4984456;28;20034;-92
2021/12/20 03:15:11;;;;;;;52.97;47.42;;;;;;;1.02;74.07;102511.25;4982745;28;20026;-91
2021/12/20 03:17:49;;;;;;;53.70;47.83;;;;;;;1.19;74.58;102542.31;4989148;28;20037;-90
2021/12/20 03:20:23;;;;;;;52.17;47.30;;;;;;;1.30;74.52;102579.06;4971238;28;20051;-90
2021/12/20 03:22:48;;;;;;;53.05;47.85;;;;;;;1.14;74.21;102546.34;4972331;28;20053;-90
2021/12/20 03:25:14;;;;;;;50.43;45.90;;;;;;;1.20;74.45;102554.19;4979596;23;20027;-85
2021/12/20 03:27:40;;;;;;;50.95;46.10;;;;;;;1.11;74.29;102552.13;4972666;28;20039;-86
2021/12/20 03:30:11;;;;;;;51.78;47.08;;;;;;;1.08;74.47;102527.56;4946318;28;20095;-85
2021/12/20 03:32:37;;;;;;;51.28;46.38;;;;;;;1.21;73.38;102569.47;4978041;28;20027;-87
2021/12/20 03:35:11;;;;;;;50.35;45.92;;;;;;;1.02;74.01;102526.47;4982159;28;20034;-85
2021/12/20 03:37:42;;;;;;;51.42;46.65;;;;;;;0.92;74.40;102524.34;4983652;28;20026;-86
2021/12/20 03:40:08;;;;;;;50.80;45.90;;;;;;;0.93;74.05;102521.00;4980117;28;20058;-87
2021/12/20 03:42:43;;;;;;;50.03;45.55;;;;;;;0.95;74.95;102549.81;4975862;28;20026;-88
2021/12/20 03:45:09;;;;;;;49.83;45.42;;;;;;;1.24;74.45;102584.78;4959406;28;20065;-88
2021/12/20 03:47:35;;;;;;;51.45;46.63;;;;;;;1.05;74.17;102541.75;4973884;28;20022;-88
2021/12/20 03:50:00;;;;;;;50.47;45.75;;;;;;;1.10;73.70;102545.34;4960688;28;20022;-87
2021/12/20 03:52:25;;;;;;;50.80;45.77;;;;;;;1.05;73.72;102537.56;4992256;28;20103;-89
2021/12/20 03:54:51;;;;;;;50.63;46.23;;;;;;;1.30;73.30;102574.00;4966859;28;20031;-88
2021/12/20 03:57:17;;;;;;;49.77;45.47;;;;;;;1.25;74.11;102563.69;4970336;28;20457;-87
2021/12/20 03:59:47;;;;;;;49.50;45.27;;;;;;;1.20;73.21;102560.09;4969409;28;20021;-88
2021/12/20 04:02:19;;;;;;;50.80;46.20;;;;;;;1.25;73.72;102573.81;4953275;28;20035;-87
2021/12/20 04:04:44;;;;;;;51.05;46.15;;;;;;;1.25;73.93;102565.38;4969579;28;20019;-87
2021/12/20 04:07:09;;;;;;;49.57;45.27;;;;;;;1.01;73.36;102533.16;4969345;28;20026;-88
2021/12/20 04:09:35;;;;;;;50.10;45.63;;;;;;;0.99;74.26;102541.53;4953878;28;20026;-86
2021/12/20 04:12:01;;;;;;;49.75;45.55;;;;;;;1.03;73.83;102558.56;4970365;28;20027;-87
2021/12/20 04:14:29;;;;;;;51.57;46.43;;;;;;;1.17;73.42;102577.72;4960467;28;20031;-87
2021/12/20 04:16:55;;;;;;;49.97;45.40;;;;;;;1.03;73.51;102558.56;4963715;28;20030;-87
2021/12/20 04:19:22;;;;;;;51.37;46.53;;;;;;;0.90;73.73;102517.53;4962559;28;20034;-87
2021/12/20 04:21:48;;;;;;;50.08;45.88;;;;;;;1.15;73.31;102569.22;4963181;28;20033;-88
2021/12/20 04:24:13;;;;;;;49.77;45.43;;;;;;;1.09;73.26;102566.44;4961053;28;20027;-87
2021/12/20 04:26:45;;;;;;;50.30;45.50;;;;;;;1.14;73.40;102587.75;4977677;28;20269;-88
2021/12/20 04:29:11;;;;;;;50.80;46.42;;;;;;;1.03;73.63;102583.91;4958643;29;20027;-86
2021/12/20 04:31:36;;;;;;;51.78;46.97;;;;;;;0.93;73.84;102564.09;4958120;29;20491;-88
2021/12/20 04:34:02;;;;;;;50.77;46.23;;;;;;;1.01;73.43;102585.53;4957986;29;20047;-87
2021/12/20 04:36:29;;;;;;;49.88;45.20;;;;;;;0.84;73.68;102547.72;4957312;29;20406;-87
2021/12/20 04:38:55;;;;;;;50.80;46.08;;;;;;;0.91;73.71;102558.97;4969161;28;20050;-87
2021/12/20 04:41:21;;;;;;;51.38;46.38;;;;;;;0.80;73.56;102545.84;4964875;29;20031;-86
2021/12/20 04:43:46;;;;;;;51.07;46.20;;;;;;;0.96;73.76;102572.69;4951189;29;20034;-88
2021/12/20 04:46:11;;;;;;;49.27;45.07;;;;;;;1.09;73.48;102594.31;4950573;29;20034;-89
2021/12/20 04:48:37;;;;;;;50.60;46.07;;;;;;;0.99;73.35;102577.00;4951885;28;20099;-88
2021/12/20 04:51:02;;;;;;;49.93;45.60;;;;;;;0.77;73.68;102550.78;4949982;29;20027;-88
2021/12/20 04:53:28;;;;;;;51.10;46.37;;;;;;;0.93;74.17;102571.69;4967407;28;20156;-88
2021/12/20 04:55:53;;;;;;;50.43;45.37;;;;;;;0.98;73.28;102586.25;4970631;28;20114;-87
2021/12/20 04:58:21;;;;;;;51.33;46.27;;;;;;;0.74;73.61;102540.53;4972033;28;20034;-87
2021/12/20 05:00:49;;;;;;;50.28;45.78;;;;;;;0.84;73.37;102554.44;4950573;28;20034;-87
2021/12/20 05:03:14;;;;;;;49.47;45.33;;;;;;;0.75;73.25;102539.75;4967935;28;20042;-87
2021/12/20 05:05:43;;;;;;;51.80;46.50;;;;;;;0.97;73.04;102573.53;4967785;28;20037;-87
2021/12/20 05:08:10;;;;;;;51.20;46.55;;;;;;;0.54;73.53;102545.66;4983338;28;20026;-86
2021/12/20 05:10:55;;;;;;;51.47;46.58;;;;;;;0.95;73.41;102582.75;4972284;28;20018;-89
2021/12/20 05:13:20;;;;;;;51.67;46.75;;;;;;;0.54;72.92;102548.19;4965068;28;20030;-88
2021/12/20 05:15:46;;;;;;;50.73;46.07;;;;;;;0.77;73.00;102558.41;4949604;29;20023;-88
2021/12/20 05:18:14;;;;;;;53.43;48.10;;;;;;;0.76;72.68;102553.25;4968822;28;20038;-88
2021/12/20 05:20:39;;;;;;;50.30;45.70;;;;;;;0.65;73.32;102565.47;4965920;28;20028;-88
2021/12/20 05:23:07;;;;;;;50.53;45.93;;;;;;;0.66;73.49;102580.75;4975591;28;20031;-88
2021/12/20 05:25:33;;;;;;;50.63;46.05;;;;;;;0.73;73.55;102597.06;4980177;28;20022;-87
2021/12/20 05:27:58;;;;;;;51.83;46.83;;;;;;;0.80;73.74;102581.31;4978091;28;20023;-86
2021/12/20 05:30:23;;;;;;;52.83;47.73;;;;;;;0.82;73.13;102581.38;4991663;28;20082;-88
2021/12/20 05:32:49;;;;;;;51.10;46.47;;;;;;;0.66;72.77;102541.88;4971353;28;20023;-87
2021/12/20 05:35:15;;;;;;;50.13;45.70;;;;;;;0.75;72.93;102577.75;4984593;28;20023;-87
2021/12/20 05:37:44;;;;;;;52.45;47.20;;;;;;;0.72;73.47;102582.69;4973061;28;20026;-87
2021/12/20 05:40:11;;;;;;;50.53;46.03;;;;;;;0.86;73.37;102601.84;4974033;28;20191;-89
2021/12/20 05:42:36;;;;;;;;;;;;;;;0.74;73.36;102598.78;4960049;28;20034;-88
2021/12/20 05:45:10;;;;;;;49.63;45.13;;;;;;;0.66;73.32;102578.19;4954108;28;19921;-89
2021/12/20 05:47:35;;;;;;;49.45;45.10;;;;;;;0.82;73.45;102602.50;4988913;28;20050;-88
2021/12/20 05:50:01;;;;;;;51.77;46.63;;;;;;;0.80;73.94;102611.72;4980529;28;20041;-87
2021/12/20 05:52:27;;;;;;;51.47;46.47;;;;;;;0.83;73.74;102599.19;4992851;28;20082;-88
2021/12/20 05:54:52;;;;;;;50.47;45.77;;;;;;;0.87;73.08;102606.09;4985137;28;20268;-90
2021/12/20 05:57:18;;;;;;;51.10;46.40;;;;;;;0.75;73.32;102582.81;4994057;28;20033;-88
2021/12/20 05:59:43;;;;;;;50.42;45.95;;;;;;;0.68;73.50;102569.00;4997514;28;20058;-87
2021/12/20 06:02:08;;;;;;;49.70;45.43;;;;;;;0.74;72.94;102587.81;5001219;28;20056;-85
2021/12/20 06:04:34;;;;;;;52.20;47.37;;;;;;;0.74;73.15;102596.25;4987095;28;20018;-89
2021/12/20 06:06:59;;;;;;;49.73;45.53;;;;;;;0.79;73.11;102609.13;4980827;28;20027;-88
2021/12/20 06:09:25;;;;;;;49.83;45.43;;;;;;;0.92;73.49;102620.63;4979657;28;20011;-89
2021/12/20 06:11:51;;;;;;;49.93;45.57;;;;;;;0.81;73.66;102593.19;4979985;28;20027;-87
2021/12/20 06:14:16;;;;;;;51.50;46.40;;;;;;;0.88;73.41;102612.91;4984754;28;20047;-87
2021/12/20 06:16:42;;;;;;;51.50;46.67;;;;;;;0.88;73.42;102617.97;4986596;28;20027;-86
2021/12/20 06:19:08;;;;;;;50.23;45.37;;;;;;;0.89;73.36;102614.66;4964105;28;20090;-87
2021/12/20 06:21:34;;;;;;;50.92;46.03;;;;;;;0.95;73.29;102625.81;4980936;28;20038;-87
2021/12/20 06:23:59;;;;;;;51.38;46.40;;;;;;;0.66;73.37;102601.00;4980575;28;20031;-87
2021/12/20 06:26:25;;;;;;;51.73;46.30;;;;;;;0.85;73.25;102635.56;4964853;28;20018;-88
2021/12/20 06:28:51;;;;;;;49.97;45.53;;;;;;;0.83;73.33;102632.13;4965622;28;20023;-88
2021/12/20 06:31:17;;;;;;;49.60;45.08;;;;;;;0.62;73.53;102604.22;4981373;28;20163;-88
2021/12/20 06:33:45;;;;;;;51.05;46.15;;;;;;;0.70;73.24;102619.72;4979696;28;20035;-87
2021/12/20 06:36:11;;;;;;;50.55;45.85;;;;;;;0.48;73.56;102601.09;4963958;28;20023;-87
2021/12/20 06:38:43;;;;;;;50.75;45.97;;;;;;;0.82;73.83;102635.44;4964875;28;20029;-88
2021/12/20 06:41:12;;;;;;;50.10;45.53;;;;;;;0.81;73.45;102613.47;4965042;28;20046;-89
2021/12/20 06:43:37;;;;;;;50.97;46.38;;;;;;;0.79;73.74;102607.44;4965163;28;20082;-87
2021/12/20 06:46:03;;;;;;;49.43;45.00;;;;;;;0.64;74.22;102619.47;4964010;28;20027;-88
2021/12/20 06:48:31;;;;;;;50.03;45.43;;;;;;;0.60;74.07;102597.34;4965554;28;20123;-88
2021/12/20 06:50:56;;;;;;;50.10;45.55;;;;;;;0.85;74.00;102634.72;4966859;28;20043;-87
2021/12/20 06:53:22;;;;;;;49.43;45.00;;;;;;;0.81;74.05;102633.72;4965869;28;20094;-88
2021/12/20 06:55:47;;;;;;;50.03;45.63;;;;;;;0.74;73.18;102620.72;4965461;28;20445;-88
2021/12/20 06:58:13;;;;;;;50.20;45.43;;;;;;;0.79;73.76;102609.97;4964890;28;20027;-88
2021/12/20 07:00:39;;;;;;;51.50;46.42;;;;;;;0.57;73.61;102594.69;4981293;28;20253;-89
2021/12/20 07:03:07;;;;;;;49.77;45.47;;;;;;;0.66;73.26;102612.81;4965075;28;20026;-89
2021/12/20 07:05:33;;;;;;;49.42;45.22;;;;;;;0.54;73.15;102588.69;4966134;28;20026;-88
2021/12/20 07:07:58;;;;;;;50.87;46.30;;;;;;;0.71;73.24;102608.78;4966521;28;20061;-87
2021/12/20 07:10:24;;;;;;;50.13;45.83;;;;;;;0.85;73.77;102638.09;4985295;28;20018;-87
2021/12/20 07:12:51;;;;;;;50.57;45.77;;;;;;;0.71;73.67;102621.47;4985653;28;20296;-88
2021/12/20 07:15:19;;;;;;;53.28;47.78;;;;;;;0.60;74.03;102592.28;4969712;28;20018;-87
2021/12/20 07:17:45;;;;;;;51.85;46.85;;;;;;;0.75;73.74;102653.72;4969212;28;20034;-87
2021/12/20 07:20:17;;;;;;;50.73;45.90;;;;;;;0.88;73.60;102655.13;4985300;28;20078;-89
2021/12/20 07:22:42;;;;;;;51.15;46.33;;;;;;;0.88;74.06;102658.50;4985360;28;20014;-87
2021/12/20 07:25:10;;;;;;;51.30;46.57;;;;;;;0.88;73.64;102661.03;4968777;28;20086;-86
2021/12/20 07:27:36;;;;;;;49.53;45.35;;;;;;;0.77;73.94;102642.00;4985225;28;20050;-85
2021/12/20 07:30:02;;;;;;;;;;;;;;;0.87;73.66;102666.91;4968996;28;20030;-85
2021/12/20 07:32:28;;;;;;;51.00;46.28;;;;;;;0.90;74.06;102666.19;4968748;28;19946;-86
2021/12/20 07:34:53;;;;;;;51.47;46.80;;;;;;;0.88;73.55;102665.25;4968551;28;20013;-86
2021/12/20 07:37:18;;;;;;;50.13;45.53;;;;;;;0.79;74.12;102669.91;4984780;28;20031;-88
2021/12/20 07:39:44;;;;;;;51.67;46.80;;;;;;;0.86;74.45;102671.91;4968486;28;20023;-87
2021/12/20 07:42:09;;;;;;;54.00;48.13;;;;;;;0.71;74.23;102646.78;4983447;28;20046;-88
2021/12/20 07:44:35;;;;;;;52.87;47.37;;;;;;;0.88;74.13;102670.31;4967947;28;20019;-88
2021/12/20 07:47:04;;;;;;;51.70;47.00;;;;;;;0.90;73.85;102666.19;4967229;28;20021;-88
2021/12/20 07:49:29;;;;;;;50.83;45.78;;;;;;;0.70;73.64;102629.84;4966833;28;20027;-88
2021/12/20 07:51:55;;;;;;;50.40;45.83;;;;;;;0.75;73.95;102643.59;4966567;28;20042;-89
2021/12/20 07:54:20;;;;;;;52.43;47.30;;;;;;;0.67;73.88;102630.59;4965661;28;20086;-88
2021/12/20 07:56:51;;;;;;;50.97;46.07;;;;;;;0.88;73.44;102671.19;4980536;28;20031;-89
2021/12/20 07:59:19;;;;;;;51.60;46.45;;;;;;;0.85;73.38;102665.97;4960300;28;20265;-88
2021/12/20 08:01:44;;;;;;;50.38;45.88;;;;;;;0.84;73.75;102656.66;4961158;28;20023;-89
2021/12/20 08:04:10;;;;;;;53.47;45.87;;;;;;;0.97;73.25;102690.09;4976471;28;20030;-89
2021/12/20 08:06:35;;;;;;;52.33;47.63;;;;;;;1.38;72.74;102686.75;4959512;28;20034;-89
2021/12/20 08:09:01;;;;;;;50.83;46.37;;;;;;;1.83;69.83;102682.56;4958503;28;20116;-88
2021/12/20 08:11:26;;;;;;;51.20;46.77;;;;;;;2.28;69.23;102691.06;4960297;28;20038;-88
2021/12/20 08:13:52;;;;;;;52.07;47.33;;;;;;;2.69;66.39;102663.75;4958747;28;20157;-88
2021/12/20 08:16:20;;;;;;;52.42;47.33;;;;;;;2.69;65.01;102667.97;4958645;28;20023;-86
2021/12/20 08:18:49;;;;;;;52.67;47.63;;;;;;;2.16;66.66;102657.59;4957669;28;20042;-89
2021/12/20 08:21:15;;;;;;;54.08;48.58;;;;;;;2.10;66.16;102659.91;4961887;28;20038;-88
2021/12/20 08:23:43;;;;;;;54.53;49.03;;;;;;;1.90;67.73;102662.56;4977602;28;20420;-88
2021/12/20 08:26:10;;;;;;;53.25;47.92;;;;;;;1.87;68.66;102687.81;4962625;28;20391;-88
2021/12/20 08:28:38;;;;;;;53.22;47.92;;;;;;;1.60;69.88;102668.19;4980743;28;20019;-88
2021/12/20 08:31:08;;;;;;;51.83;47.08;;;;;;;1.92;69.18;102671.09;4964266;28;20053;-88
2021/12/20 08:33:42;;;;;;;53.70;48.08;;;;;;;2.36;67.01;102686.28;4964368;28;20035;-88
2021/12/20 08:36:11;;;;;;;52.95;47.90;;;;;;;2.51;66.45;102653.81;4981464;28;20023;-86
2021/12/20 08:38:38;;;;;;;53.92;48.55;;;;;;;2.53;66.00;102669.97;4981793;28;20034;-89
2021/12/20 08:41:03;;;;;;;;;;;;;;;2.92;65.40;102694.19;4966886;28;20043;-87
2021/12/20 08:43:29;;;;;;;53.55;48.25;;;;;;;2.94;65.63;102684.91;4964676;28;19898;-86
2021/12/20 08:45:59;;;;;;;53.87;48.50;;;;;;;2.65;65.09;102666.97;4964199;28;20041;-87
2021/12/20 08:48:25;;;;;;;54.58;49.03;;;;;;;2.43;65.84;102672.13;4976871;28;20011;-88
2021/12/20 08:50:51;;;;;;;54.55;48.78;;;;;;;2.48;66.33;102701.09;4962127;28;20053;-88
2021/12/20 08:53:17;;;;;;;53.65;48.15;;;;;;;2.37;66.59;102682.94;4961888;28;20027;-88
2021/12/20 08:55:45;;;;;;;52.27;47.47;;;;;;;2.46;65.74;102706.09;4962709;28;20015;-88
2021/12/20 08:58:12;;;;;;;52.50;47.50;;;;;;;2.09;67.00;102681.03;4979253;28;20031;-88
2021/12/20 09:00:38;;;;;;;54.25;48.65;;;;;;;1.91;67.28;102686.25;4964866;28;20043;-88
2021/12/20 09:03:09;;;;;;;52.83;47.60;;;;;;;1.87;67.17;102682.75;4977622;28;20026;-88
2021/12/20 09:05:36;;;;;;;50.72;46.28;;;;;;;1.94;67.74;102697.41;4976929;28;20275;-88
2021/12/20 09:08:02;;;;;;;;;;;;;;;1.93;68.49;102718.53;4965362;28;20047;-86
2021/12/20 09:10:31;;;;;;;51.25;46.50;;;;;;;1.80;68.82;102684.19;4963191;28;19989;-88
2021/12/20 09:13:00;;;;;;;53.35;47.72;;;;;;;1.85;68.20;102706.34;4960229;28;20023;-88
2021/12/20 09:15:26;;;;;;;51.42;46.35;;;;;;;1.71;68.86;102698.19;4958456;28;20113;-88
2021/12/20 09:17:55;;;;;;;52.47;47.63;;;;;;;1.60;68.93;102685.94;4972552;28;20406;-88
2021/12/20 09:20:25;;;;;;;50.08;45.63;;;;;;;1.73;68.54;102716.88;4957605;28;20046;-88
2021/12/20 09:23:04;;;;;;;53.13;47.78;;;;;;;1.54;68.03;102680.63;4973228;28;20122;-86
2021/12/20 09:33:55;;;;;;;52.95;47.78;;;;;;;1.54;69.16;102669.63;5172987;23;20073;-92
2021/12/20 09:37:09;;;;;;;51.35;46.55;;;;;;;1.62;68.96;102693.59;4962647;28;20031;-92
2021/12/20 09:43:20;;;;;;;;;;;;;;;1.83;68.93;102724.06;4979421;28;20031;-92
2021/12/20 09:46:00;;;;;;;53.08;48.05;;;;;;;1.59;68.47;102674.06;4964709;28;20476;-91
2021/12/20 09:48:38;;;;;;;51.70;46.83;;;;;;;1.60;69.43;102696.06;4977314;28;20075;-90
2021/12/20 09:51:22;;;;;;;52.80;47.63;;;;;;;1.69;69.26;102694.75;4974755;28;20047;-91
2021/12/20 09:54:03;;;;;;;51.58;46.70;;;;;;;1.87;68.75;102709.81;4971939;29;20466;-90
2021/12/20 10:00:22;;;;;;;53.70;48.65;;;;;;;1.98;69.37;102726.31;4948051;28;20092;-92
2021/12/20 10:03:16;;;;;;;;;;;;;;;;;;;;;
2021/12/20 10:05:48;;;;;;;53.08;47.92;;;;;;;2.06;68.99;102730.00;4971537;29;20054;-91
2021/12/20 10:08:32;;;;;;;51.80;46.78;;;;;;;2.12;68.87;102721.78;4966161;28;20183;-91
2021/12/20 10:11:20;;;;;;;53.22;47.92;;;;;;;2.14;68.54;102728.63;4965489;28;20039;-91
2021/12/20 10:17:55;;;;;;;53.80;48.33;;;;;;;2.02;68.47;102712.94;4961379;28;20107;-91
2021/12/20 10:20:35;;;;;;;51.25;46.67;;;;;;;2.25;68.13;102736.66;4961262;28;20099;-91
2021/12/20 10:23:32;;;;;;;53.78;47.88;;;;;;;2.18;68.97;102725.41;4952225;28;20031;-90
2021/12/20 10:26:31;;;;;;;52.75;47.20;;;;;;;1.89;68.43;102691.28;4953648;29;20090;-92
2021/12/20 10:29:50;;;;;;;51.95;47.25;;;;;;;2.23;68.91;102745.03;4973255;28;20106;-92
2021/12/20 10:33:19;;;;;;;52.92;47.38;;;;;;;2.23;68.64;102750.97;4970733;28;20046;-91
2021/12/20 10:36:32;;;;;;;51.78;46.85;;;;;;;2.40;68.62;102763.44;4974923;28;20042;-92
2021/12/20 10:39:34;;;;;;;51.35;46.35;;;;;;;2.17;68.44;102730.44;4963118;29;20066;-92
2021/12/20 10:42:27;;;;;;;54.80;48.83;;;;;;;2.41;68.69;102755.03;4969733;28;20023;-92
2021/12/20 10:48:18;;;;;;;55.42;49.33;;;;;;;2.37;67.82;102731.19;4977930;28;20019;-92
2021/12/20 10:51:13;;;;;;;55.55;49.33;;;;;;;2.54;68.13;102752.13;4961378;28;20035;-91
2021/12/20 10:54:09;;;;;;;58.05;49.85;;;;;;;2.40;68.42;102718.56;4977496;28;20100;-91
2021/12/20 10:56:46;;;;;;;55.20;49.40;;;;;;;2.47;68.62;102742.56;4975634;28;20035;-92
2021/12/20 10:59:25;;;;;;;54.88;49.33;;;;;;;2.61;67.29;102764.25;4977452;28;20023;-92
2021/12/20 11:03:04;;;;;;;54.42;48.92;;;;;;;2.23;67.57;102715.44;4977809;28;20019;-92
2021/12/20 11:05:16;;;;;;;53.00;47.97;;;;;;;2.61;67.35;102774.41;4976807;28;20022;-92
2021/12/20 11:11:30;;;;;;;52.95;47.90;;;;;;;2.41;68.33;102727.09;4977935;28;20053;-91
2021/12/20 11:14:27;;;;;;;54.65;49.03;;;;;;;2.78;68.08;102757.22;4976779;28;20023;-92
2021/12/20 11:17:08;;;;;;;54.88;49.13;;;;;;;2.89;67.00;102755.06;4977953;28;20090;-92
2021/12/20 11:22:39;;;;;;;53.92;48.35;;;;;;;2.86;67.70;102749.88;4977392;28;20036;-91
2021/12/20 11:25:17;;;;;;;52.88;47.95;;;;;;;2.68;67.00;102719.59;4977070;28;20106;-92
2021/12/20 11:27:58;;;;;;;56.15;50.13;;;;;;;2.62;66.91;102705.00;4977641;28;20029;-92
2021/12/20 11:30:29;;;;;;;55.63;49.80;;;;;;;2.66;67.48;102716.16;4977374;28;20043;-91
2021/12/20 11:33:20;;;;;;;54.50;49.05;;;;;;;2.90;67.62;102747.50;4961629;28;20027;-91
2021/12/20 11:35:57;;;;;;;54.08;48.53;;;;;;;2.76;67.54;102722.41;4980874;28;20047;-92
2021/12/20 11:38:36;;;;;;;;;;;;;;;2.87;66.83;102749.94;4965178;28;20018;-92
2021/12/20 11:41:26;;;;;;;55.67;49.58;;;;;;;2.65;67.48;102694.94;4960602;28;19906;-90
2021/12/20 11:44:13;;;;;;;54.92;49.03;;;;;;;2.87;67.72;102726.22;4961067;28;20122;-92
2021/12/20 11:47:25;;;;;;;52.90;47.92;;;;;;;3.14;67.00;102748.31;4976225;28;20063;-91
2021/12/20 11:50:26;;;;;;;54.53;48.85;;;;;;;3.23;66.93;102740.97;4972312;28;20086;-91
2021/12/20 11:53:15;;;;;;;52.45;47.58;;;;;;;3.23;66.45;102746.06;4948049;29;20047;-92
2021/12/20 11:59:26;;;;;;;51.17;46.63;;;;;;;3.21;67.80;102743.50;4967873;28;20031;-92
2021/12/20 12:02:41;;;;;;;55.03;49.17;;;;;;;2.89;67.02;102678.81;4959813;29;20257;-91
2021/12/20 12:05:40;;;;;;;53.00;47.83;;;;;;;3.33;67.50;102742.19;4976738;29;20031;-91
2021/12/20 12:12:22;;;;;;;52.60;47.78;;;;;;;3.43;66.91;102737.44;4974835;28;20023;-90
2021/12/20 12:15:28;;;;;;;53.85;48.35;;;;;;;3.10;66.54;102704.09;4964366;28;20034;-90
2021/12/20 12:18:33;;;;;;;52.65;47.78;;;;;;;3.18;67.64;102706.91;4979759;28;20054;-92
2021/12/20 12:25:08;;;;;;;53.10;48.25;;;;;;;3.40;66.77;102739.88;4953590;28;20023;-91
2021/12/20 12:28:02;;;;;;;53.33;48.25;;;;;;;3.28;67.22;102703.88;4980399;28;20011;-92
2021/12/20 12:30:56;;;;;;;54.00;48.58;;;;;;;3.28;66.47;102716.59;4979707;28;20015;-92
2021/12/20 14:59:30;;;;;;;57.90;52.15;;;;;;;2.78;73.38;102766.53;1763517;23;20327;-92
2021/12/20 15:02:27;;;;;;;;;;;;;;;;;;;;;
2021/12/20 15:05:18;;;;;;;51.85;47.05;;;;;;;2.53;74.30;102745.34;4972557;28;20194;-91
2021/12/20 15:07:49;;;;;;;54.05;48.50;;;;;;;2.68;74.04;102771.28;4953518;28;20031;-92